Terminal Aerodrome Forecast
Issued by NWS

Home | Current Version | Previous Version | Graphics & Text | Print | Product List | Glossary On
Versions: 1 2 3 4 5 6 7 8 9 10 11 12 13 14 15 16 17 18 19 20 21 22 23 24 25 26 27 28 29 30 31 32 33 34 35 36 37
000
FTUS43 KGLD 032336
TAFMCK
TAF
KMCK 032336Z 0400/0424 07011KT P6SM BKN090
     FM040600 07009KT P6SM VCTS BKN080CB
     FM040800 07009KT 3SM TSRA OVC010CB
     FM041000 07010KT P6SM VCTS OVC008CB
     FM041200 07011KT P6SM OVC008
     FM041900 10010KT P6SM BKN050=

USA.gov is the U.S. government's official web portal to all federal, state and local government web resources and services.